createdAt,value
2023-03-29T00:00:53.815Z,7664.00
2023-03-29T00:01:53.856Z,7587.00
2023-03-29T00:02:53.971Z,7349.00
2023-03-29T00:03:54.011Z,7095.00
2023-03-29T00:04:53.963Z,6899.00
2023-03-29T00:05:53.996Z,6858.00
2023-03-29T00:06:54.044Z,6871.00
2023-03-29T00:07:54.176Z,6908.00
2023-03-29T00:08:54.136Z,6926.00
2023-03-29T00:09:54.169Z,7003.00
2023-03-29T00:10:54.215Z,7001.00
2023-03-29T00:11:54.234Z,6998.00
2023-03-29T00:12:54.276Z,6894.00
2023-03-29T00:13:54.322Z,6743.00
2023-03-29T00:14:54.376Z,6686.00
2023-03-29T00:15:54.411Z,6569.00
2023-03-29T00:16:54.448Z,6606.00
2023-03-29T00:17:54.626Z,6659.00
2023-03-29T00:18:54.522Z,6783.00
2023-03-29T00:19:54.563Z,6907.00
2023-03-29T00:20:54.610Z,7130.00
2023-03-29T00:21:54.648Z,7481.00
2023-03-29T00:22:54.719Z,7630.00
2023-03-29T00:23:54.715Z,7595.00
2023-03-29T00:24:54.738Z,7410.00
2023-03-29T00:25:54.767Z,7298.00
2023-03-29T00:26:54.788Z,7146.00
2023-03-29T00:27:54.844Z,6893.00
2023-03-29T00:28:54.878Z,6615.00
2023-03-29T00:29:54.893Z,6440.00
2023-03-29T00:30:54.948Z,6287.00
2023-03-29T00:31:55.013Z,6097.00
2023-03-29T00:32:54.949Z,5911.00
2023-03-29T00:33:54.928Z,5746.00
2023-03-29T00:34:54.968Z,5542.00
2023-03-29T00:35:55.013Z,5414.00
2023-03-29T00:36:55.022Z,5278.00
2023-03-29T00:37:55.058Z,5216.00
2023-03-29T00:38:55.110Z,5185.00
2023-03-29T00:39:55.122Z,5089.00
2023-03-29T00:40:55.164Z,4952.00
2023-03-29T00:41:55.179Z,5091.00
2023-03-29T00:42:55.182Z,5501.00
2023-03-29T00:43:55.206Z,5861.00
2023-03-29T00:44:55.208Z,6141.00
2023-03-29T00:45:55.267Z,6348.00
2023-03-29T00:46:55.265Z,6510.00
2023-03-29T00:47:55.276Z,6634.00
2023-03-29T00:48:55.267Z,6602.00
2023-03-29T00:49:55.270Z,6516.00
2023-03-29T00:50:55.296Z,6538.00
2023-03-29T00:51:55.336Z,6613.00
2023-03-29T00:52:55.338Z,6777.00
2023-03-29T00:53:55.360Z,6848.00
2023-03-29T00:54:55.410Z,6835.00
2023-03-29T00:55:55.448Z,6815.00
2023-03-29T00:56:55.541Z,6804.00
2023-03-29T00:57:55.560Z,6700.00
2023-03-29T00:58:55.608Z,6492.00
2023-03-29T00:59:55.638Z,6299.00
2023-03-29T01:00:55.749Z,6536.00
2023-03-29T01:01:55.782Z,6648.00
2023-03-29T01:02:55.908Z,6681.00
2023-03-29T01:03:55.904Z,6709.00
2023-03-29T01:04:55.933Z,6685.00
2023-03-29T01:05:55.955Z,6967.00
2023-03-29T01:06:56.163Z,8106.00
2023-03-29T01:07:56.044Z,9008.00
2023-03-29T01:08:56.072Z,8599.00
2023-03-29T01:09:56.145Z,8163.00
2023-03-29T01:10:56.207Z,7950.00
2023-03-29T01:11:56.255Z,7504.00
2023-03-29T01:12:56.317Z,6980.00
2023-03-29T01:13:56.385Z,6610.00
2023-03-29T01:14:56.429Z,6544.00
2023-03-29T01:15:56.513Z,6298.00
2023-03-29T01:16:56.562Z,6200.00
2023-03-29T01:17:56.705Z,6374.00
2023-03-29T01:18:56.661Z,6444.00
2023-03-29T01:19:56.698Z,6494.00
2023-03-29T01:20:56.758Z,6586.00
2023-03-29T01:21:56.841Z,6724.00
2023-03-29T01:22:56.840Z,6879.00
2023-03-29T01:23:56.890Z,6929.00
2023-03-29T01:24:56.937Z,6931.00
2023-03-29T01:25:56.975Z,6858.00
2023-03-29T01:26:57.019Z,6988.00
2023-03-29T01:27:57.065Z,7367.00
2023-03-29T01:28:57.089Z,7787.00
2023-03-29T01:29:57.142Z,7814.00
2023-03-29T01:30:57.193Z,7832.00
2023-03-29T01:31:57.281Z,7841.00
2023-03-29T01:32:57.371Z,7748.00
2023-03-29T01:33:57.323Z,7631.00
2023-03-29T01:34:57.375Z,7370.00
2023-03-29T01:35:57.515Z,6994.00
2023-03-29T01:36:57.504Z,6780.00
2023-03-29T01:37:57.545Z,6695.00
2023-03-29T01:38:57.609Z,6812.00
2023-03-29T01:39:57.673Z,7039.00
2023-03-29T01:40:57.708Z,7217.00
2023-03-29T01:41:57.773Z,7198.00
2023-03-29T01:42:57.971Z,7271.00
2023-03-29T01:43:57.895Z,7748.00
2023-03-29T01:44:57.968Z,8239.00
2023-03-29T01:45:58.096Z,8265.00
2023-03-29T01:46:58.075Z,8000.00
2023-03-29T01:47:58.178Z,7729.00
2023-03-29T01:48:58.206Z,7663.00
2023-03-29T01:49:58.316Z,7573.00
2023-03-29T01:50:58.332Z,7830.00
2023-03-29T01:51:58.410Z,8426.00
2023-03-29T01:52:58.433Z,8499.00
2023-03-29T01:53:58.468Z,8204.00
2023-03-29T01:54:58.518Z,8076.00
2023-03-29T01:55:58.587Z,8137.00
2023-03-29T01:56:58.661Z,8186.00
2023-03-29T01:57:58.671Z,8230.00
2023-03-29T01:58:58.705Z,8220.00
2023-03-29T01:59:58.731Z,8178.00
2023-03-29T02:00:58.911Z,8203.00
2023-03-29T02:01:58.861Z,8356.00
2023-03-29T02:02:58.948Z,8417.00
2023-03-29T02:03:58.929Z,8306.00
2023-03-29T02:04:58.960Z,8127.00
2023-03-29T02:05:58.958Z,8032.00
2023-03-29T02:06:58.983Z,8047.00
2023-03-29T02:07:58.995Z,8051.00
2023-03-29T02:08:59.002Z,8053.00
2023-03-29T02:09:59.004Z,8220.00
2023-03-29T02:10:59.133Z,8360.00
2023-03-29T02:11:59.024Z,8558.00
2023-03-29T02:12:59.008Z,8571.00
2023-03-29T02:13:59.002Z,8465.00
2023-03-29T02:14:59.005Z,8241.00
2023-03-29T02:15:59.058Z,8103.00
2023-03-29T02:16:59.008Z,7854.00
2023-03-29T02:17:59.083Z,7832.00
2023-03-29T02:18:59.033Z,7774.00
2023-03-29T02:19:59.048Z,7788.00
2023-03-29T02:20:59.416Z,7973.00
2023-03-29T02:21:59.059Z,8127.00
2023-03-29T02:22:59.076Z,8017.00
2023-03-29T02:23:59.099Z,7829.00
2023-03-29T02:24:59.192Z,7585.00
2023-03-29T02:25:59.111Z,7462.00
2023-03-29T02:26:59.149Z,7326.00
2023-03-29T02:27:59.146Z,7167.00
2023-03-29T02:28:59.188Z,7057.00
2023-03-29T02:29:59.240Z,6977.00
2023-03-29T02:30:59.377Z,6910.00
2023-03-29T02:31:59.287Z,6815.00
2023-03-29T02:32:59.427Z,6776.00
2023-03-29T02:33:59.334Z,6781.00
2023-03-29T02:34:59.366Z,6833.00
2023-03-29T02:35:59.484Z,6860.00
2023-03-29T02:36:59.412Z,6885.00
2023-03-29T02:37:59.441Z,6917.00
2023-03-29T02:38:59.451Z,6973.00
2023-03-29T02:39:59.497Z,7040.00
2023-03-29T02:40:59.680Z,7201.00
2023-03-29T02:41:59.554Z,7468.00
2023-03-29T02:42:59.592Z,7613.00
2023-03-29T02:43:59.654Z,7723.00
2023-03-29T02:44:59.672Z,7688.00
2023-03-29T02:45:59.696Z,7659.00
2023-03-29T02:46:59.843Z,7707.00
2023-03-29T02:47:59.809Z,7783.00
2023-03-29T02:48:59.772Z,7775.00
2023-03-29T02:49:59.809Z,7777.00
2023-03-29T02:51:00.105Z,7767.00
2023-03-29T02:52:00.004Z,7745.00
2023-03-29T02:52:59.991Z,7693.00
2023-03-29T02:54:00.042Z,7678.00
2023-03-29T02:55:00.086Z,7685.00
2023-03-29T02:56:00.158Z,7714.00
2023-03-29T02:57:00.267Z,7683.00
2023-03-29T02:58:00.225Z,7727.00
2023-03-29T02:59:00.204Z,7793.00
2023-03-29T03:00:00.208Z,7825.00
2023-03-29T03:01:00.317Z,7861.00
2023-03-29T03:02:00.283Z,7890.00
2023-03-29T03:03:01.988Z,7903.00
2023-03-29T03:04:00.382Z,7925.00
2023-03-29T03:05:00.377Z,7978.00
2023-03-29T03:06:00.449Z,8036.00
2023-03-29T03:07:00.506Z,8099.00
2023-03-29T03:08:00.555Z,8132.00
2023-03-29T03:09:00.578Z,8142.00
2023-03-29T03:10:00.601Z,8113.00
2023-03-29T03:11:00.826Z,8128.00
2023-03-29T03:12:00.708Z,8150.00
2023-03-29T03:13:00.867Z,8098.00
2023-03-29T03:14:00.847Z,7992.00
2023-03-29T03:15:00.899Z,7914.00
2023-03-29T03:16:00.987Z,7841.00
2023-03-29T03:17:03.133Z,7784.00
2023-03-29T03:18:01.029Z,7786.00
2023-03-29T03:19:01.023Z,7775.00
2023-03-29T03:20:01.014Z,7732.00
2023-03-29T03:21:01.180Z,7774.00
2023-03-29T03:22:00.987Z,7695.00
2023-03-29T03:23:00.982Z,7605.00
2023-03-29T03:24:00.992Z,7607.00
2023-03-29T03:25:00.963Z,7601.00
2023-03-29T03:26:00.945Z,7571.00
2023-03-29T03:27:00.942Z,7601.00
2023-03-29T03:28:00.924Z,7651.00
2023-03-29T03:29:00.938Z,7682.00
2023-03-29T03:30:00.931Z,7724.00
2023-03-29T03:31:01.075Z,7746.00
2023-03-29T03:32:00.938Z,7767.00
2023-03-29T03:33:00.966Z,7678.00
2023-03-29T03:34:00.913Z,7558.00
2023-03-29T03:35:00.884Z,7386.00
2023-03-29T03:36:00.912Z,7318.00
2023-03-29T03:37:00.861Z,7291.00
2023-03-29T03:38:00.865Z,7288.00
2023-03-29T03:39:00.841Z,7298.00
2023-03-29T03:40:00.858Z,7285.00
2023-03-29T03:41:01.272Z,7347.00
2023-03-29T03:42:00.860Z,7440.00
2023-03-29T03:43:00.929Z,7389.00
2023-03-29T03:44:00.835Z,7333.00
2023-03-29T03:45:00.806Z,7285.00
2023-03-29T03:46:00.887Z,7257.00
2023-03-29T03:47:00.827Z,7199.00
2023-03-29T03:48:00.902Z,7126.00
2023-03-29T03:49:00.771Z,7067.00
2023-03-29T03:50:00.769Z,7054.00
2023-03-29T03:51:01.048Z,7003.00
2023-03-29T03:52:00.745Z,6977.00
2023-03-29T03:53:00.760Z,6974.00
2023-03-29T03:54:00.749Z,7016.00
2023-03-29T03:55:00.730Z,6987.00
2023-03-29T03:56:00.734Z,6984.00
2023-03-29T03:57:00.780Z,6973.00
2023-03-29T03:58:00.701Z,6979.00
2023-03-29T03:59:00.731Z,6979.00
2023-03-29T04:00:00.733Z,6907.00
2023-03-29T04:01:00.842Z,6826.00
2023-03-29T04:02:00.754Z,6751.00
2023-03-29T04:03:00.757Z,6839.00
2023-03-29T04:04:00.772Z,6968.00
2023-03-29T04:05:00.677Z,7043.00
2023-03-29T04:06:00.668Z,7063.00
2023-03-29T04:07:00.646Z,7108.00
2023-03-29T04:08:00.660Z,7031.00
2023-03-29T04:09:00.640Z,6887.00
2023-03-29T04:10:00.633Z,6827.00
2023-03-29T04:11:00.686Z,6812.00
2023-03-29T04:12:00.638Z,6809.00
2023-03-29T04:13:00.625Z,6736.00
2023-03-29T04:14:00.609Z,6560.00
2023-03-29T04:15:00.614Z,6511.00
2023-03-29T04:16:01.876Z,6554.00
2023-03-29T04:17:00.583Z,6656.00
2023-03-29T04:18:00.655Z,6624.00
2023-03-29T04:19:00.596Z,6570.00
2023-03-29T04:20:00.576Z,6635.00
2023-03-29T04:21:00.777Z,6689.00
2023-03-29T04:22:00.566Z,6689.00
2023-03-29T04:23:00.559Z,6671.00
2023-03-29T04:24:00.556Z,6685.00
2023-03-29T04:25:00.542Z,6726.00
2023-03-29T04:26:00.544Z,6798.00
2023-03-29T04:27:00.520Z,6846.00
2023-03-29T04:28:00.551Z,6905.00
2023-03-29T04:29:00.534Z,6933.00
2023-03-29T04:30:00.492Z,6954.00
2023-03-29T04:31:00.705Z,6967.00
2023-03-29T04:32:00.486Z,6970.00
2023-03-29T04:33:00.506Z,6990.00
2023-03-29T04:34:00.687Z,7030.00
2023-03-29T04:35:00.468Z,7078.00
2023-03-29T04:36:00.518Z,7208.00
2023-03-29T04:37:00.473Z,7363.00
2023-03-29T04:38:00.447Z,7508.00
2023-03-29T04:39:00.463Z,7632.00
2023-03-29T04:40:00.439Z,7712.00
2023-03-29T04:41:00.716Z,7732.00
2023-03-29T04:42:00.426Z,7770.00
2023-03-29T04:43:00.430Z,7725.00
2023-03-29T04:44:00.422Z,7616.00
2023-03-29T04:45:00.468Z,7528.00
2023-03-29T04:46:00.499Z,7369.00
2023-03-29T04:47:00.401Z,7324.00
2023-03-29T04:48:00.460Z,7343.00
2023-03-29T04:49:00.376Z,7338.00
2023-03-29T04:50:00.367Z,7417.00
2023-03-29T04:51:00.691Z,7450.00
2023-03-29T04:52:00.384Z,7363.00
2023-03-29T04:53:00.406Z,7285.00
2023-03-29T04:54:00.361Z,7218.00
2023-03-29T04:55:00.396Z,7142.00
2023-03-29T04:56:00.353Z,7095.00
2023-03-29T04:57:00.405Z,7115.00
2023-03-29T04:58:00.326Z,7097.00
2023-03-29T04:59:00.330Z,7124.00
2023-03-29T05:00:00.388Z,7157.00
2023-03-29T05:01:00.454Z,7225.00
2023-03-29T05:02:00.406Z,7296.00
2023-03-29T05:03:00.375Z,7376.00
2023-03-29T05:04:00.345Z,7596.00
2023-03-29T05:05:00.275Z,7794.00
2023-03-29T05:06:00.282Z,8054.00
2023-03-29T05:07:00.280Z,8359.00
2023-03-29T05:08:00.260Z,8278.00
2023-03-29T05:09:00.272Z,8318.00
2023-03-29T05:10:00.255Z,8242.00
2023-03-29T05:11:00.499Z,8152.00
2023-03-29T05:12:00.220Z,7936.00
2023-03-29T05:13:00.240Z,7956.00
2023-03-29T05:14:00.246Z,8090.00
2023-03-29T05:15:00.218Z,8588.00
2023-03-29T05:16:00.257Z,9286.00
2023-03-29T05:17:00.194Z,9677.00
2023-03-29T05:18:00.270Z,9432.00
2023-03-29T05:19:00.233Z,9265.00
2023-03-29T05:20:00.256Z,9314.00
2023-03-29T05:21:00.847Z,9588.00
2023-03-29T05:22:00.401Z,9775.00
2023-03-29T05:23:00.443Z,9319.00
2023-03-29T05:24:00.479Z,9034.00
2023-03-29T05:25:00.559Z,8852.00
2023-03-29T05:26:00.593Z,8712.00
2023-03-29T05:27:00.619Z,8592.00
2023-03-29T05:28:00.676Z,8617.00
2023-03-29T05:29:00.735Z,8817.00
2023-03-29T05:30:00.790Z,9086.00
2023-03-29T05:31:01.165Z,9154.00
2023-03-29T05:32:00.831Z,9050.00
2023-03-29T05:33:00.827Z,9025.00
2023-03-29T05:34:00.806Z,8946.00
2023-03-29T05:35:00.786Z,8781.00
2023-03-29T05:36:00.854Z,8543.00
2023-03-29T05:37:00.864Z,8387.00
2023-03-29T05:38:00.820Z,8311.00
2023-03-29T05:39:00.847Z,8287.00
2023-03-29T05:40:06.132Z,8270.00
2023-03-29T05:41:02.150Z,8212.00
2023-03-29T05:42:00.884Z,8201.00
2023-03-29T05:43:00.856Z,8178.00
2023-03-29T05:44:00.831Z,8123.00
2023-03-29T05:45:00.826Z,8077.00
2023-03-29T05:46:00.892Z,8117.00
2023-03-29T05:47:00.818Z,8202.00
2023-03-29T05:48:00.967Z,8301.00
2023-03-29T05:49:00.836Z,8355.00
2023-03-29T05:50:00.778Z,8371.00
2023-03-29T05:51:01.033Z,8431.00
2023-03-29T05:52:00.807Z,8408.00
2023-03-29T05:53:00.779Z,8367.00
2023-03-29T05:54:00.795Z,8234.00
2023-03-29T05:55:00.894Z,8179.00
2023-03-29T05:56:00.840Z,8112.00
2023-03-29T05:57:00.900Z,8008.00
2023-03-29T05:58:00.860Z,7814.00
2023-03-29T05:59:00.857Z,7757.00
2023-03-29T06:00:00.858Z,7692.00
2023-03-29T06:01:01.050Z,7600.00
2023-03-29T06:02:00.950Z,7579.00
2023-03-29T06:03:06.810Z,7566.00
2023-03-29T06:04:02.165Z,7553.00
2023-03-29T06:05:00.923Z,7567.00
2023-03-29T06:06:00.861Z,7579.00
2023-03-29T06:07:00.882Z,7544.00
2023-03-29T06:08:00.859Z,7615.00
2023-03-29T06:09:00.827Z,7533.00
2023-03-29T06:10:00.826Z,7388.00
2023-03-29T06:11:02.463Z,7421.00
2023-03-29T06:12:00.815Z,7335.00
2023-03-29T06:13:00.811Z,7038.00
2023-03-29T06:14:00.805Z,6794.00
2023-03-29T06:15:00.854Z,6621.00
2023-03-29T06:16:00.808Z,6510.00
2023-03-29T06:17:00.815Z,6406.00
2023-03-29T06:18:00.843Z,6364.00
2023-03-29T06:19:00.759Z,6390.00
2023-03-29T06:20:00.769Z,6381.00
2023-03-29T06:21:00.869Z,6347.00
2023-03-29T06:22:01.222Z,6370.00
2023-03-29T06:23:00.866Z,6509.00
2023-03-29T06:24:00.759Z,6914.00
2023-03-29T06:25:00.730Z,7475.00
2023-03-29T06:26:00.786Z,7595.00
2023-03-29T06:27:00.722Z,7592.00
2023-03-29T06:28:00.692Z,7744.00
2023-03-29T06:29:00.744Z,7822.00
2023-03-29T06:30:00.711Z,9948.00
2023-03-29T06:31:00.961Z,11859.00
2023-03-29T06:32:00.713Z,13397.00
2023-03-29T06:33:02.265Z,13057.00
2023-03-29T06:34:00.675Z,12273.00
2023-03-29T06:35:00.690Z,11780.00
2023-03-29T06:36:00.651Z,11420.00
2023-03-29T06:37:00.630Z,11326.00
2023-03-29T06:38:00.654Z,11497.00
2023-03-29T06:39:00.619Z,11824.00
2023-03-29T06:40:00.631Z,11394.00
2023-03-29T06:41:00.743Z,10869.00
2023-03-29T06:42:05.219Z,11215.00
2023-03-29T06:43:01.644Z,10790.00
2023-03-29T06:44:00.602Z,10490.00
2023-03-29T06:45:00.575Z,10729.00
2023-03-29T06:46:00.766Z,10178.00
2023-03-29T06:47:00.702Z,9797.00
2023-03-29T06:48:00.747Z,9541.00
2023-03-29T06:49:00.555Z,10541.00
2023-03-29T06:50:00.559Z,11081.00
2023-03-29T06:51:00.790Z,9877.00
2023-03-29T06:52:00.544Z,10693.00
2023-03-29T06:53:00.700Z,10607.00
2023-03-29T06:54:00.542Z,9762.00
2023-03-29T06:55:00.570Z,9894.00
2023-03-29T06:56:00.503Z,9435.00
2023-03-29T06:57:00.565Z,9337.00
2023-03-29T06:58:02.703Z,10234.00
2023-03-29T06:59:00.536Z,10651.00
2023-03-29T07:00:00.620Z,10526.00
2023-03-29T07:01:00.717Z,11534.00
2023-03-29T07:02:00.657Z,10597.00
2023-03-29T07:03:00.812Z,10232.00
2023-03-29T07:04:00.762Z,9674.00
2023-03-29T07:05:00.764Z,9392.00
2023-03-29T07:06:00.820Z,9139.00
2023-03-29T07:07:00.895Z,10201.00
2023-03-29T07:08:01.219Z,10412.00
2023-03-29T07:09:00.977Z,9662.00
2023-03-29T07:10:01.039Z,9655.00
2023-03-29T07:11:01.294Z,9537.00
2023-03-29T07:12:01.089Z,9359.00
2023-03-29T07:13:01.148Z,9202.00
2023-03-29T07:14:01.121Z,9213.00
2023-03-29T07:15:01.726Z,9089.00
2023-03-29T07:16:01.251Z,9268.00
2023-03-29T07:17:01.273Z,10115.00
2023-03-29T07:18:01.363Z,9774.00
2023-03-29T07:19:01.356Z,9712.00
2023-03-29T07:20:01.397Z,10325.00
2023-03-29T07:21:01.705Z,11505.00
2023-03-29T07:22:01.724Z,12163.00
2023-03-29T07:23:01.717Z,10962.00
2023-03-29T07:24:01.590Z,10502.00
2023-03-29T07:25:01.622Z,10455.00
2023-03-29T07:26:01.662Z,10124.00
2023-03-29T07:27:04.447Z,9835.00
2023-03-29T07:28:01.719Z,10294.00
2023-03-29T07:29:01.711Z,10220.00
2023-03-29T07:30:01.686Z,10849.00
2023-03-29T07:31:01.996Z,10470.00
2023-03-29T07:32:01.672Z,10351.00
2023-03-29T07:33:01.810Z,9788.00
2023-03-29T07:34:01.639Z,10183.00
2023-03-29T07:35:01.710Z,10598.00
2023-03-29T07:36:01.657Z,10214.00
2023-03-29T07:37:01.729Z,9106.00
2023-03-29T07:38:01.616Z,8386.00
2023-03-29T07:39:01.627Z,7759.00
2023-03-29T07:40:01.669Z,7612.00
2023-03-29T07:41:01.943Z,7843.00
2023-03-29T07:42:01.719Z,8621.00
2023-03-29T07:43:01.593Z,9557.00
2023-03-29T07:44:03.290Z,9031.00
2023-03-29T07:45:01.720Z,9061.00
2023-03-29T07:46:01.608Z,9267.00
2023-03-29T07:47:01.577Z,9189.00
2023-03-29T07:48:01.614Z,8904.00
2023-03-29T07:49:01.609Z,8974.00
2023-03-29T07:50:01.788Z,9573.00
2023-03-29T07:51:01.726Z,9009.00
2023-03-29T07:52:01.540Z,8828.00
2023-03-29T07:53:01.901Z,8541.00
2023-03-29T07:54:01.495Z,8111.00
2023-03-29T07:55:01.724Z,8772.00
2023-03-29T07:56:01.549Z,8787.00
2023-03-29T07:57:01.517Z,8780.00
2023-03-29T07:58:01.489Z,8287.00
2023-03-29T07:59:01.464Z,8036.00
2023-03-29T08:00:01.734Z,8350.00
2023-03-29T08:01:01.706Z,9028.00
2023-03-29T08:02:01.528Z,7912.00
2023-03-29T08:03:01.669Z,8669.00
2023-03-29T08:04:01.717Z,8887.00
2023-03-29T08:05:01.723Z,7730.00
2023-03-29T08:06:01.705Z,7105.00
2023-03-29T08:07:01.777Z,7261.00
2023-03-29T08:08:01.806Z,7693.00
2023-03-29T08:09:01.867Z,7464.00
2023-03-29T08:10:01.937Z,6972.00
2023-03-29T08:11:02.131Z,6716.00
2023-03-29T08:12:02.027Z,7924.00
2023-03-29T08:13:02.089Z,7519.00
2023-03-29T08:15:14.743Z,500.00
2023-03-29T08:16:14.932Z,500.00
2023-03-29T08:17:14.712Z,500.00
2023-03-29T08:18:14.714Z,500.00
2023-03-29T08:19:14.768Z,500.00
2023-03-29T08:20:14.664Z,412.00
2023-03-29T08:21:14.685Z,514.00
2023-03-29T08:22:14.704Z,489.00
2023-03-29T08:23:14.698Z,576.00
2023-03-29T08:24:14.701Z,594.00
2023-03-29T08:25:15.104Z,1957.00
2023-03-29T08:26:14.653Z,1545.00
2023-03-29T08:27:14.694Z,580.00
2023-03-29T08:28:15.024Z,521.00
2023-03-29T08:29:14.810Z,521.00
2023-03-29T08:30:14.875Z,468.00
2023-03-29T08:31:15.027Z,467.00
2023-03-29T08:32:14.944Z,405.00
2023-03-29T08:33:15.010Z,400.00
2023-03-29T08:34:15.029Z,454.00
2023-03-29T08:35:15.086Z,567.00
2023-03-29T08:36:15.190Z,562.00
2023-03-29T08:37:15.181Z,638.00
2023-03-29T08:38:15.597Z,771.00
2023-03-29T08:39:16.790Z,2092.00
2023-03-29T08:40:15.330Z,2153.00
2023-03-29T08:41:15.428Z,2554.00
2023-03-29T08:42:15.426Z,2002.00
2023-03-29T08:43:15.514Z,1593.00
2023-03-29T08:44:15.589Z,1485.00
2023-03-29T08:45:15.660Z,1542.00
2023-03-29T08:46:15.733Z,1443.00
2023-03-29T08:47:15.722Z,1622.00
2023-03-29T08:48:15.680Z,1414.00
2023-03-29T08:49:15.664Z,1437.00
2023-03-29T08:50:15.674Z,1458.00
2023-03-29T08:51:15.680Z,1604.00
2023-03-29T08:52:20.529Z,1526.00
2023-03-29T08:53:15.672Z,1347.00
2023-03-29T08:54:15.703Z,1221.00
2023-03-29T08:55:15.656Z,984.00
2023-03-29T08:56:15.645Z,2054.00
2023-03-29T08:57:16.071Z,2439.00
2023-03-29T08:58:15.740Z,2334.00
2023-03-29T08:59:15.613Z,1648.00
2023-03-29T09:00:15.653Z,796.00
2023-03-29T09:01:15.663Z,504.00
2023-03-29T09:02:17.144Z,422.00
2023-03-29T09:03:15.695Z,502.00
2023-03-29T09:04:16.682Z,527.00
2023-03-29T09:05:15.606Z,522.00
2023-03-29T09:06:15.665Z,533.00
2023-03-29T09:07:15.549Z,504.00
2023-03-29T09:08:15.538Z,500.00
2023-03-29T09:09:16.641Z,508.00
2023-03-29T09:10:15.541Z,517.00
2023-03-29T09:11:15.611Z,534.00
2023-03-29T09:12:15.537Z,552.00
2023-03-29T09:13:15.559Z,534.00
2023-03-29T09:14:15.601Z,800.00
2023-03-29T09:15:15.540Z,521.00
2023-03-29T09:16:16.078Z,514.00
2023-03-29T09:17:15.483Z,547.00
2023-03-29T09:18:15.591Z,767.00
2023-03-29T09:19:15.517Z,868.00
2023-03-29T09:20:15.491Z,2326.00
2023-03-29T09:21:18.032Z,2603.00
2023-03-29T09:22:15.706Z,2475.00
2023-03-29T09:23:16.043Z,1803.00
2023-03-29T09:24:15.805Z,918.00
2023-03-29T09:25:15.859Z,1152.00
2023-03-29T09:26:15.839Z,1376.00
2023-03-29T09:27:15.913Z,1288.00
2023-03-29T09:28:16.017Z,1161.00
2023-03-29T09:29:15.771Z,1467.00
2023-03-29T09:30:15.849Z,849.00
2023-03-29T09:31:15.832Z,524.00
2023-03-29T09:32:17.580Z,447.00
2023-03-29T09:33:16.052Z,458.00
2023-03-29T09:34:15.944Z,459.00
2023-03-29T09:35:15.748Z,627.00
2023-03-29T09:36:15.821Z,528.00
2023-03-29T09:37:15.794Z,575.00
2023-03-29T09:38:15.728Z,628.00
2023-03-29T09:39:15.775Z,434.00
2023-03-29T09:40:16.586Z,645.00
2023-03-29T09:41:15.690Z,491.00
2023-03-29T09:42:15.752Z,574.00
2023-03-29T09:43:15.707Z,532.00
2023-03-29T09:44:28.146Z,607.00
2023-03-29T09:45:16.760Z,545.00
2023-03-29T09:46:15.950Z,400.00
2023-03-29T09:47:15.723Z,400.00
2023-03-29T09:48:16.050Z,400.00
2023-03-29T09:49:17.337Z,442.00
2023-03-29T09:50:29.627Z,400.00
2023-03-29T09:51:16.600Z,400.00
2023-03-29T09:52:15.634Z,400.00
2023-03-29T09:53:15.656Z,400.00
2023-03-29T09:54:15.604Z,400.00
2023-03-29T09:55:15.594Z,400.00
2023-03-29T09:56:15.612Z,722.00
2023-03-29T09:57:15.620Z,818.00
2023-03-29T09:58:15.641Z,654.00
2023-03-29T09:59:17.082Z,1581.00
2023-03-29T10:00:15.773Z,1154.00
2023-03-29T10:01:15.881Z,1780.00
2023-03-29T10:02:15.841Z,1680.00
2023-03-29T10:03:15.864Z,924.00
2023-03-29T10:04:16.097Z,651.00
2023-03-29T10:05:15.893Z,1005.00
2023-03-29T10:06:15.857Z,980.00
2023-03-29T10:07:15.853Z,638.00
2023-03-29T10:08:18.284Z,573.00
2023-03-29T10:09:16.073Z,581.00
2023-03-29T10:10:16.531Z,497.00
2023-03-29T10:11:15.831Z,507.00
2023-03-29T10:12:15.821Z,537.00
2023-03-29T10:13:15.844Z,459.00
2023-03-29T10:14:15.854Z,400.00
2023-03-29T10:15:26.801Z,400.00
2023-03-29T10:16:16.004Z,520.00
2023-03-29T10:17:16.086Z,401.00
2023-03-29T10:18:16.093Z,499.00
2023-03-29T10:19:19.028Z,514.00
2023-03-29T10:20:16.056Z,553.00
2023-03-29T10:21:16.040Z,541.00
2023-03-29T10:22:16.130Z,400.00
2023-03-29T10:23:16.110Z,400.00
2023-03-29T10:24:16.069Z,400.00
2023-03-29T10:25:16.577Z,400.00
2023-03-29T10:26:16.014Z,400.00
2023-03-29T10:27:16.005Z,450.00
2023-03-29T10:28:16.001Z,470.00
2023-03-29T10:29:15.956Z,444.00
2023-03-29T10:30:15.941Z,400.00
2023-03-29T10:31:17.782Z,479.00
2023-03-29T10:32:15.934Z,400.00
2023-03-29T10:33:15.917Z,400.00
2023-03-29T10:34:15.914Z,400.00
2023-03-29T10:35:16.142Z,400.00
2023-03-29T10:36:15.932Z,440.00
2023-03-29T10:37:15.931Z,500.00
2023-03-29T10:38:15.877Z,506.00
2023-03-29T10:39:15.969Z,515.00
2023-03-29T10:40:16.589Z,516.00
2023-03-29T10:41:15.857Z,515.00
2023-03-29T10:42:15.889Z,495.00
2023-03-29T10:43:15.901Z,400.00
2023-03-29T10:44:15.857Z,400.00
2023-03-29T10:45:15.936Z,400.00
2023-03-29T10:46:15.870Z,447.00
2023-03-29T10:47:15.882Z,505.00
2023-03-29T10:48:15.825Z,507.00
2023-03-29T10:49:15.938Z,532.00
2023-03-29T10:50:15.864Z,504.00
2023-03-29T10:51:16.547Z,549.00
2023-03-29T10:52:15.868Z,570.00
2023-03-29T10:53:15.863Z,547.00
2023-03-29T10:54:17.626Z,502.00
2023-03-29T10:55:16.036Z,537.00
2023-03-29T10:56:15.776Z,576.00
2023-03-29T10:57:15.889Z,539.00
2023-03-29T10:58:15.784Z,595.00
2023-03-29T10:59:15.813Z,643.00
2023-03-29T11:00:17.051Z,904.00
2023-03-29T11:01:16.774Z,1240.00
2023-03-29T11:02:15.783Z,1353.00
2023-03-29T11:03:17.539Z,1394.00
2023-03-29T11:04:15.798Z,1398.00
2023-03-29T11:05:15.814Z,1417.00
2023-03-29T11:06:15.791Z,1452.00
2023-03-29T11:07:15.822Z,1419.00
2023-03-29T11:08:15.775Z,1219.00
2023-03-29T11:09:15.741Z,1167.00
2023-03-29T11:10:15.794Z,1175.00
2023-03-29T11:11:15.731Z,1060.00
2023-03-29T11:12:16.526Z,1509.00
2023-03-29T11:13:15.768Z,1149.00
2023-03-29T11:14:15.825Z,982.00
2023-03-29T11:15:16.102Z,930.00
2023-03-29T11:16:15.876Z,500.00
2023-03-29T11:17:15.982Z,424.00
2023-03-29T11:18:15.943Z,476.00
2023-03-29T11:19:15.985Z,400.00
2023-03-29T11:20:16.029Z,400.00
2023-03-29T11:21:15.983Z,407.00
2023-03-29T11:22:16.542Z,429.00
2023-03-29T11:23:15.950Z,497.00
2023-03-29T11:24:15.960Z,446.00
2023-03-29T11:25:15.939Z,400.00
2023-03-29T11:26:15.925Z,463.00
2023-03-29T11:27:15.925Z,513.00
2023-03-29T11:28:15.904Z,474.00
2023-03-29T11:29:15.966Z,498.00
2023-03-29T11:30:15.977Z,511.00
2023-03-29T11:31:15.976Z,521.00
2023-03-29T11:32:15.936Z,604.00
2023-03-29T11:33:16.577Z,924.00
2023-03-29T11:34:15.903Z,1268.00
2023-03-29T11:35:15.867Z,1500.00
2023-03-29T11:36:15.927Z,1532.00
2023-03-29T11:37:15.894Z,1385.00
2023-03-29T11:38:16.543Z,1266.00
2023-03-29T11:39:15.938Z,1233.00
2023-03-29T11:40:15.944Z,1305.00
2023-03-29T11:41:15.916Z,1210.00
2023-03-29T11:42:15.924Z,848.00
2023-03-29T11:43:15.964Z,663.00
2023-03-29T11:44:15.938Z,512.00
2023-03-29T11:45:17.600Z,507.00
2023-03-29T11:46:15.925Z,435.00
2023-03-29T11:47:15.902Z,424.00
2023-03-29T11:48:15.914Z,400.00
2023-03-29T11:49:15.876Z,400.00
2023-03-29T11:50:15.891Z,400.00
2023-03-29T11:51:15.902Z,400.00
2023-03-29T11:52:15.860Z,440.00
2023-03-29T11:53:15.843Z,533.00
2023-03-29T11:54:15.862Z,522.00
2023-03-29T11:55:15.897Z,578.00
2023-03-29T11:56:15.833Z,563.00
2023-03-29T11:57:15.934Z,503.00
2023-03-29T11:58:16.060Z,525.00
2023-03-29T11:59:15.826Z,652.00
2023-03-29T12:00:15.852Z,613.00
2023-03-29T12:01:15.858Z,533.00
2023-03-29T12:02:15.871Z,561.00
2023-03-29T12:03:15.953Z,630.00
2023-03-29T12:04:15.938Z,767.00
2023-03-29T12:05:15.944Z,916.00
2023-03-29T12:06:16.030Z,1033.00
2023-03-29T12:07:16.024Z,1136.00
2023-03-29T12:08:17.547Z,1173.00
2023-03-29T12:09:16.898Z,1174.00
2023-03-29T12:10:17.117Z,1152.00
2023-03-29T12:11:16.329Z,1184.00